Time;durP1;ratioP1;P1;durP2;ratioP2;P2;SDS_P1;SDS_P2;PMS_P1;PMS_P2;Temp;Humidity;BMP_temperature;BMP_pressure;BME280_temperature;BME280_humidity;BME280_pressure;Samples;Min_cycle;Max_cycle;Signal;HPM_P1;HPM_P2
2021/05/07 00:01:11;;;;;;;6.85;1.42;;;;;;;;;;143732;564;46020;-83
2021/05/07 00:03:39;;;;;;;6.68;1.60;;;;;;;;;;143732;611;46010;-83
2021/05/07 00:06:10;;;;;;;4.45;1.58;;;;;;;;;;143733;557;47021;-83
2021/05/07 00:08:39;;;;;;;8.05;1.60;;;;;;;;;;143734;593;46010;-83
2021/05/07 00:11:14;;;;;;;4.20;1.80;;;;;;;;;;143732;564;46022;-84
2021/05/07 00:13:42;;;;;;;13.05;2.47;;;;;;;;;;143733;606;46010;-82
2021/05/07 00:16:08;;;;;;;7.97;1.73;;;;;;;;;;143732;619;46020;-83
2021/05/07 00:18:37;;;;;;;5.15;2.35;;;;;;;;;;143734;575;46011;-83
2021/05/07 00:21:05;;;;;;;3.70;2.22;;;;;;;;;;143733;602;46023;-83
2021/05/07 00:23:33;;;;;;;10.02;2.20;;;;;;;;;;143732;598;46010;-84
2021/05/07 00:26:00;;;;;;;6.37;2.20;;;;;;;;;;143735;572;46020;-83
2021/05/07 00:28:26;;;;;;;8.15;2.62;;;;;;;;;;143735;575;46010;-83
2021/05/07 00:30:53;;;;;;;7.60;1.48;;;;;;;;;;143731;585;47022;-84
2021/05/07 00:33:19;;;;;;;7.30;1.67;;;;;;;;;;143736;572;46021;-84
2021/05/07 00:35:46;;;;;;;4.93;1.85;;;;;;;;;;143734;595;46021;-83
2021/05/07 00:38:14;;;;;;;6.03;1.70;;;;;;;;;;143734;566;46010;-83
2021/05/07 00:40:41;;;;;;;6.30;1.70;;;;;;;;;;143731;603;47022;-82
2021/05/07 00:43:07;;;;;;;3.42;1.15;;;;;;;;;;143731;585;46010;-83
2021/05/07 00:45:34;;;;;;;5.60;1.95;;;;;;;;;;143733;564;47018;-84
2021/05/07 00:48:16;;;;;;;6.53;1.73;;;;;;;;;;143735;597;46011;-82
2021/05/07 00:50:44;;;;;;;5.60;2.28;;;;;;;;;;143732;608;46023;-85
2021/05/07 00:53:12;;;;;;;5.15;2.47;;;;;;;;;;143735;596;45916;-83
2021/05/07 00:55:39;;;;;;;2.95;1.75;;;;;;;;;;143734;633;46020;-83
2021/05/07 00:58:09;;;;;;;4.97;1.35;;;;;;;;;;143736;585;46010;-83
2021/05/07 01:00:36;;;;;;;4.95;1.58;;;;;;;;;;143731;573;46022;-83
2021/05/07 01:03:03;;;;;;;4.82;1.62;;;;;;;;;;143730;573;46012;-82
2021/05/07 01:05:30;;;;;;;3.65;1.40;;;;;;;;;;143734;605;46021;-83
2021/05/07 01:08:01;;;;;;;6.70;1.80;;;;;;;;;;143734;592;46010;-83
2021/05/07 01:10:30;;;;;;;5.28;1.58;;;;;;;;;;143732;576;46022;-84
2021/05/07 01:12:56;;;;;;;5.78;1.77;;;;;;;;;;143733;569;46021;-83
2021/05/07 01:15:27;;;;;;;5.28;2.10;;;;;;;;;;143733;569;47020;-83
2021/05/07 01:18:04;;;;;;;7.70;2.78;;;;;;;;;;143733;581;46012;-83
2021/05/07 01:20:33;;;;;;;6.80;1.73;;;;;;;;;;143730;581;47023;-84
2021/05/07 01:23:10;;;;;;;6.80;1.48;;;;;;;;;;143731;594;46916;-84
2021/05/07 01:25:44;;;;;;;3.00;1.62;;;;;;;;;;143734;569;46021;-83
2021/05/07 01:28:13;;;;;;;10.68;1.80;;;;;;;;;;143733;579;46012;-83
2021/05/07 01:30:42;;;;;;;6.32;1.50;;;;;;;;;;143735;591;46020;-85
2021/05/07 01:33:14;;;;;;;9.82;1.90;;;;;;;;;;143731;564;46916;-83
2021/05/07 01:35:45;;;;;;;7.90;2.15;;;;;;;;;;143733;603;48020;-83
2021/05/07 01:38:16;;;;;;;8.35;2.30;;;;;;;;;;143736;571;46043;-82
2021/05/07 01:40:45;;;;;;;12.05;4.18;;;;;;;;;;143736;577;46013;-84
2021/05/07 01:43:13;;;;;;;5.85;2.05;;;;;;;;;;143733;584;46010;-84
2021/05/07 01:45:44;;;;;;;5.50;2.40;;;;;;;;;;143733;597;46020;-84
2021/05/07 01:48:11;;;;;;;9.98;2.92;;;;;;;;;;143735;576;46010;-82
2021/05/07 01:50:41;;;;;;;7.62;3.95;;;;;;;;;;143734;572;47020;-84
2021/05/07 01:53:07;;;;;;;6.47;2.62;;;;;;;;;;143733;590;46012;-83
2021/05/07 01:55:36;;;;;;;19.95;5.75;;;;;;;;;;143736;598;46021;-83
2021/05/07 01:58:04;;;;;;;7.78;2.95;;;;;;;;;;143737;569;46010;-82
2021/05/07 02:00:31;;;;;;;6.05;2.62;;;;;;;;;;143735;614;46022;-83
2021/05/07 02:03:06;;;;;;;7.32;2.42;;;;;;;;;;143733;591;46021;-84
2021/05/07 02:05:33;;;;;;;9.45;2.97;;;;;;;;;;143733;597;47021;-83
2021/05/07 02:08:04;;;;;;;7.95;2.00;;;;;;;;;;143734;633;46018;-83
2021/05/07 02:10:32;;;;;;;12.65;3.47;;;;;;;;;;143733;643;46041;-83
2021/05/07 02:13:05;;;;;;;12.27;2.20;;;;;;;;;;143732;589;46010;-83
2021/05/07 02:15:33;;;;;;;5.10;2.03;;;;;;;;;;143734;624;46022;-84
2021/05/07 02:18:01;;;;;;;5.53;2.40;;;;;;;;;;143733;599;46013;-83
2021/05/07 02:20:29;;;;;;;5.25;2.22;;;;;;;;;;143734;633;46020;-83
2021/05/07 02:22:57;;;;;;;6.80;2.70;;;;;;;;;;143732;585;46010;-84
2021/05/07 02:25:26;;;;;;;10.02;2.60;;;;;;;;;;143735;588;46021;-82
2021/05/07 02:27:54;;;;;;;8.57;2.67;;;;;;;;;;143735;592;46018;-84
2021/05/07 02:30:29;;;;;;;6.75;2.58;;;;;;;;;;143732;579;46022;-83
2021/05/07 02:32:56;;;;;;;7.47;2.33;;;;;;;;;;143732;569;46011;-83
2021/05/07 02:35:23;;;;;;;6.82;2.20;;;;;;;;;;143735;570;46012;-83
2021/05/07 02:37:50;;;;;;;9.38;2.67;;;;;;;;;;143736;571;46010;-82
2021/05/07 02:40:17;;;;;;;5.03;2.08;;;;;;;;;;143736;564;46020;-82
2021/05/07 02:42:44;;;;;;;10.98;2.80;;;;;;;;;;143732;581;46010;-82
2021/05/07 02:45:13;;;;;;;6.45;2.85;;;;;;;;;;143735;603;46047;-84
2021/05/07 02:47:41;;;;;;;8.20;2.78;;;;;;;;;;143735;649;46012;-82
2021/05/07 02:50:09;;;;;;;5.50;2.70;;;;;;;;;;143734;565;46046;-84
2021/05/07 02:52:37;;;;;;;7.20;2.55;;;;;;;;;;143733;606;46010;-82
2021/05/07 02:55:06;;;;;;;7.78;2.28;;;;;;;;;;143735;580;47021;-82
2021/05/07 02:57:32;;;;;;;5.03;2.28;;;;;;;;;;143737;617;47010;-83
2021/05/07 02:59:59;;;;;;;6.35;2.22;;;;;;;;;;143735;569;46020;-83
2021/05/07 03:02:26;;;;;;;10.77;2.80;;;;;;;;;;143734;589;46020;-83
2021/05/07 03:04:54;;;;;;;14.73;2.87;;;;;;;;;;143734;589;47020;-82
2021/05/07 03:07:20;;;;;;;10.07;2.40;;;;;;;;;;143736;617;46012;-83
2021/05/07 03:09:48;;;;;;;6.53;2.37;;;;;;;;;;143734;600;46022;-83
2021/05/07 03:12:15;;;;;;;16.17;3.17;;;;;;;;;;143733;588;46010;-83
2021/05/07 03:14:41;;;;;;;7.80;2.62;;;;;;;;;;143734;593;46020;-81
2021/05/07 03:17:08;;;;;;;10.98;2.42;;;;;;;;;;143735;565;46010;-83
2021/05/07 03:19:35;;;;;;;9.13;1.98;;;;;;;;;;143734;629;46023;-83
2021/05/07 03:22:01;;;;;;;7.22;2.22;;;;;;;;;;143733;584;46010;-82
2021/05/07 03:24:28;;;;;;;5.60;1.75;;;;;;;;;;143736;584;46046;-82
2021/05/07 03:26:55;;;;;;;6.93;2.50;;;;;;;;;;143736;594;46010;-83
2021/05/07 03:29:22;;;;;;;9.15;2.72;;;;;;;;;;143734;572;46022;-82
2021/05/07 03:31:49;;;;;;;9.68;2.37;;;;;;;;;;143734;591;46013;-83
2021/05/07 03:34:15;;;;;;;14.48;2.33;;;;;;;;;;143735;620;46021;-83
2021/05/07 03:36:42;;;;;;;11.98;2.83;;;;;;;;;;143736;602;46018;-82
2021/05/07 03:39:10;;;;;;;6.25;3.03;;;;;;;;;;143733;704;47022;-82
2021/05/07 03:41:37;;;;;;;17.30;2.78;;;;;;;;;;143734;620;46020;-83
2021/05/07 03:44:05;;;;;;;6.45;2.53;;;;;;;;;;143735;580;46018;-82
2021/05/07 03:46:32;;;;;;;11.80;2.90;;;;;;;;;;143736;608;46011;-83
2021/05/07 03:48:59;;;;;;;9.48;3.30;;;;;;;;;;143735;595;46013;-84
2021/05/07 03:51:25;;;;;;;9.70;3.42;;;;;;;;;;143732;564;46030;-83
2021/05/07 03:53:52;;;;;;;8.52;2.58;;;;;;;;;;143734;586;46012;-82
2021/05/07 03:56:19;;;;;;;5.47;2.55;;;;;;;;;;143736;614;46011;-83
2021/05/07 03:58:47;;;;;;;7.78;3.08;;;;;;;;;;143733;585;47022;-82
2021/05/07 04:01:13;;;;;;;8.23;2.83;;;;;;;;;;143735;591;46010;-83
2021/05/07 04:03:40;;;;;;;10.80;2.62;;;;;;;;;;143737;564;46021;-83
2021/05/07 04:06:09;;;;;;;8.40;3.03;;;;;;;;;;143738;631;46020;-82
2021/05/07 04:08:41;;;;;;;10.65;2.97;;;;;;;;;;143737;589;46020;-82
2021/05/07 04:11:19;;;;;;;10.85;3.28;;;;;;;;;;143733;566;46010;-84
2021/05/07 04:13:46;;;;;;;10.52;3.22;;;;;;;;;;143735;608;46020;-84
2021/05/07 04:16:12;;;;;;;13.65;3.83;;;;;;;;;;143737;625;46010;-83
2021/05/07 04:18:39;;;;;;;16.77;5.12;;;;;;;;;;143735;627;46053;-83
2021/05/07 04:21:05;;;;;;;16.65;3.28;;;;;;;;;;143733;613;46916;-83
2021/05/07 04:23:32;;;;;;;14.25;3.58;;;;;;;;;;143735;574;46020;-83
2021/05/07 04:26:00;;;;;;;17.52;5.03;;;;;;;;;;143737;658;46019;-83
2021/05/07 04:28:28;;;;;;;7.93;3.22;;;;;;;;;;143735;582;46036;-82
2021/05/07 04:30:55;;;;;;;17.15;3.47;;;;;;;;;;143736;606;46010;-85
2021/05/07 04:33:22;;;;;;;12.57;3.62;;;;;;;;;;143738;629;46012;-84
2021/05/07 04:35:48;;;;;;;12.35;3.28;;;;;;;;;;143736;564;46010;-82
2021/05/07 04:38:15;;;;;;;13.00;3.30;;;;;;;;;;143734;571;46022;-83
2021/05/07 04:40:42;;;;;;;17.00;3.78;;;;;;;;;;143735;591;46021;-84
2021/05/07 04:43:09;;;;;;;6.20;2.50;;;;;;;;;;143736;578;46020;-84
2021/05/07 04:45:37;;;;;;;9.80;3.62;;;;;;;;;;143735;582;46020;-84
2021/05/07 04:48:11;;;;;;;18.37;4.03;;;;;;;;;;143733;583;47023;-84
2021/05/07 04:50:41;;;;;;;12.70;3.50;;;;;;;;;;143733;569;46010;-83
2021/05/07 04:53:15;;;;;;;9.30;3.22;;;;;;;;;;143736;573;47020;-83
2021/05/07 04:55:41;;;;;;;15.57;3.30;;;;;;;;;;143738;644;46010;-83
2021/05/07 04:58:08;;;;;;;11.45;2.95;;;;;;;;;;143736;566;46020;-83
2021/05/07 05:00:39;;;;;;;8.15;3.70;;;;;;;;;;143736;565;46010;-84
2021/05/07 05:03:05;;;;;;;9.52;3.10;;;;;;;;;;143735;577;47021;-83
2021/05/07 05:05:32;;;;;;;15.68;3.28;;;;;;;;;;143736;597;46020;-85
2021/05/07 05:07:59;;;;;;;11.00;3.60;;;;;;;;;;143734;563;47022;-85
2021/05/07 05:10:26;;;;;;;14.60;3.42;;;;;;;;;;143733;591;46011;-84
2021/05/07 05:12:53;;;;;;;11.95;4.00;;;;;;;;;;143735;603;46020;-84
2021/05/07 05:15:20;;;;;;;10.38;3.47;;;;;;;;;;143735;582;46010;-83
2021/05/07 05:17:47;;;;;;;12.05;3.15;;;;;;;;;;143736;616;46013;-85
2021/05/07 05:20:14;;;;;;;13.70;3.40;;;;;;;;;;143737;590;45020;-82
2021/05/07 05:22:41;;;;;;;13.95;3.35;;;;;;;;;;143736;598;46020;-82
2021/05/07 05:25:09;;;;;;;11.68;3.10;;;;;;;;;;143738;583;46020;-83
2021/05/07 05:27:39;;;;;;;19.58;4.47;;;;;;;;;;143734;590;47020;-83
2021/05/07 05:30:07;;;;;;;15.68;4.07;;;;;;;;;;143733;595;46010;-84
2021/05/07 05:32:35;;;;;;;8.98;2.83;;;;;;;;;;143735;603;46021;-84
2021/05/07 05:35:03;;;;;;;14.27;4.40;;;;;;;;;;143736;647;46010;-83
2021/05/07 05:37:29;;;;;;;7.30;2.92;;;;;;;;;;143733;583;47022;-84
2021/05/07 05:39:57;;;;;;;24.83;4.75;;;;;;;;;;143736;569;46010;-84
2021/05/07 05:42:24;;;;;;;10.48;3.75;;;;;;;;;;143735;638;46020;-85
2021/05/07 05:44:51;;;;;;;17.25;3.97;;;;;;;;;;143736;576;46010;-84
2021/05/07 05:47:17;;;;;;;26.27;4.28;;;;;;;;;;258508;65;472135;-84
2021/05/07 05:49:43;;;;;;;26.15;4.75;;;;;;;;;;143733;766;46012;-85
2021/05/07 05:52:12;;;;;;;21.55;5.72;;;;;;;;;;143735;577;47020;-86
2021/05/07 05:54:39;;;;;;;20.88;4.95;;;;;;;;;;143735;636;46019;-87
2021/05/07 05:57:07;;;;;;;15.57;4.65;;;;;;;;;;143733;569;47020;-88
2021/05/07 05:59:34;;;;;;;21.17;3.58;;;;;;;;;;143734;635;46020;-86
2021/05/07 06:02:03;;;;;;;10.75;3.65;;;;;;;;;;143736;649;46020;-85
2021/05/07 06:04:31;;;;;;;9.13;3.67;;;;;;;;;;143735;578;46021;-87
2021/05/07 06:06:57;;;;;;;9.25;3.22;;;;;;;;;;143733;569;47022;-85
2021/05/07 06:09:27;;;;;;;13.73;2.95;;;;;;;;;;143735;649;46013;-85
2021/05/07 06:11:54;;;;;;;10.60;2.17;;;;;;;;;;143736;622;46020;-85
2021/05/07 06:14:20;;;;;;;16.08;3.42;;;;;;;;;;143735;605;46020;-85
2021/05/07 06:16:48;;;;;;;17.48;4.12;;;;;;;;;;143733;602;47022;-87
2021/05/07 06:19:15;;;;;;;26.42;5.28;;;;;;;;;;143734;571;47012;-84
2021/05/07 06:21:44;;;;;;;9.82;3.15;;;;;;;;;;143736;602;46020;-85
2021/05/07 06:24:11;;;;;;;14.65;3.10;;;;;;;;;;143736;616;46013;-84
2021/05/07 06:26:38;;;;;;;17.27;4.68;;;;;;;;;;143735;661;46020;-84
2021/05/07 06:29:04;;;;;;;13.93;3.20;;;;;;;;;;143734;566;46012;-85
2021/05/07 06:31:31;;;;;;;18.98;3.30;;;;;;;;;;143734;567;47021;-84
2021/05/07 06:34:14;;;;;;;11.25;3.17;;;;;;;;;;143737;572;46012;-83
2021/05/07 06:36:40;;;;;;;7.27;2.70;;;;;;;;;;143734;575;47022;-85
2021/05/07 06:39:08;;;;;;;11.43;3.20;;;;;;;;;;143734;573;46024;-84
2021/05/07 06:42:04;;;;;;;15.13;3.67;;;;;;;;;;143736;588;46020;-84
2021/05/07 06:44:30;;;;;;;15.57;4.62;;;;;;;;;;143738;570;46020;-84
2021/05/07 06:46:57;;;;;;;10.50;3.08;;;;;;;;;;143736;580;46022;-85
2021/05/07 06:49:24;;;;;;;10.75;2.28;;;;;;;;;;143734;651;46020;-85
2021/05/07 06:51:52;;;;;;;10.10;3.08;;;;;;;;;;143736;610;46020;-83
2021/05/07 06:54:27;;;;;;;8.88;2.58;;;;;;;;;;143736;632;46013;-88
2021/05/07 06:57:00;;;;;;;22.00;3.15;;;;;;;;;;143734;597;46022;-84
2021/05/07 06:59:28;;;;;;;7.30;2.10;;;;;;;;;;143735;681;46012;-84
2021/05/07 07:02:01;;;;;;;13.20;3.03;;;;;;;;;;143737;634;46021;-84
2021/05/07 07:04:28;;;;;;;13.48;2.03;;;;;;;;;;143736;569;46018;-84
2021/05/07 07:06:55;;;;;;;32.22;3.10;;;;;;;;;;143735;580;46041;-83
2021/05/07 07:09:21;;;;;;;13.18;2.72;;;;;;;;;;143735;581;46048;-84
2021/05/07 07:11:48;;;;;;;16.95;2.25;;;;;;;;;;143736;660;46020;-85
2021/05/07 07:14:15;;;;;;;14.87;2.53;;;;;;;;;;143737;571;46012;-85
2021/05/07 07:16:44;;;;;;;13.13;2.95;;;;;;;;;;143732;615;47023;-84
2021/05/07 07:19:11;;;;;;;8.57;2.65;;;;;;;;;;143735;571;46020;-85
2021/05/07 07:21:39;;;;;;;20.98;3.47;;;;;;;;;;143735;595;46020;-85
2021/05/07 07:24:07;;;;;;;9.35;2.85;;;;;;;;;;143737;567;46012;-84
2021/05/07 07:26:35;;;;;;;11.18;3.05;;;;;;;;;;143732;575;47022;-84
2021/05/07 07:29:02;;;;;;;14.18;2.47;;;;;;;;;;143734;564;46012;-84
2021/05/07 07:31:28;;;;;;;10.52;2.85;;;;;;;;;;143736;577;46041;-85
2021/05/07 07:33:55;;;;;;;12.07;3.50;;;;;;;;;;143737;631;46012;-84
2021/05/07 07:36:22;;;;;;;12.50;2.53;;;;;;;;;;143734;570;46051;-84
2021/05/07 07:38:52;;;;;;;8.68;3.22;;;;;;;;;;143731;586;46013;-85
2021/05/07 07:41:22;;;;;;;12.52;2.55;;;;;;;;;;143734;613;46020;-84
2021/05/07 07:43:49;;;;;;;12.57;2.83;;;;;;;;;;143735;667;46599;-84
2021/05/07 07:46:20;;;;;;;9.60;3.10;;;;;;;;;;143736;648;46022;-84
2021/05/07 07:48:46;;;;;;;10.80;2.87;;;;;;;;;;143735;658;46020;-84
2021/05/07 07:51:13;;;;;;;8.90;2.22;;;;;;;;;;143737;563;46020;-85
2021/05/07 07:53:41;;;;;;;11.85;3.42;;;;;;;;;;143735;597;46013;-83
2021/05/07 07:56:08;;;;;;;16.10;2.65;;;;;;;;;;143732;644;47022;-82
2021/05/07 07:58:36;;;;;;;15.27;2.37;;;;;;;;;;143733;652;46012;-82
2021/05/07 08:01:02;;;;;;;8.85;2.30;;;;;;;;;;143734;615;46021;-83
2021/05/07 08:03:29;;;;;;;13.45;3.15;;;;;;;;;;143734;601;46012;-83
2021/05/07 08:05:56;;;;;;;8.20;2.17;;;;;;;;;;143731;566;47022;-84
2021/05/07 08:08:25;;;;;;;13.45;2.03;;;;;;;;;;143733;615;46013;-84
2021/05/07 08:10:54;;;;;;;5.82;2.15;;;;;;;;;;143734;645;46020;-85
2021/05/07 08:13:23;;;;;;;10.40;2.70;;;;;;;;;;143734;582;46012;-84
2021/05/07 08:15:53;;;;;;;5.32;2.30;;;;;;;;;;143733;602;46015;-85
2021/05/07 08:18:21;;;;;;;5.47;2.35;;;;;;;;;;143732;595;46012;-83
2021/05/07 08:20:57;;;;;;;9.95;2.58;;;;;;;;;;143733;569;46020;-83
2021/05/07 08:23:29;;;;;;;6.72;2.60;;;;;;;;;;143733;588;46013;-84
2021/05/07 08:25:59;;;;;;;9.10;2.83;;;;;;;;;;143732;606;46014;-84
2021/05/07 08:28:34;;;;;;;10.60;2.35;;;;;;;;;;143730;584;46012;-84
2021/05/07 08:31:05;;;;;;;9.45;3.40;;;;;;;;;;143734;590;47021;-84
2021/05/07 08:33:33;;;;;;;6.53;2.60;;;;;;;;;;143734;585;46018;-85
2021/05/07 08:36:05;;;;;;;6.15;2.50;;;;;;;;;;143734;576;46020;-84
2021/05/07 08:38:32;;;;;;;11.23;2.87;;;;;;;;;;143734;654;46012;-84
2021/05/07 08:41:05;;;;;;;5.20;2.05;;;;;;;;;;143734;609;46020;-84
2021/05/07 08:43:32;;;;;;;;;;;;;;;;;;143738;954;46012;-84
2021/05/07 08:46:05;;;;;;;5.28;2.15;;;;;;;;;;143743;581;46022;-84
2021/05/07 08:48:34;;;;;;;6.87;1.60;;;;;;;;;;143732;573;46010;-85
2021/05/07 08:51:02;;;;;;;7.15;1.95;;;;;;;;;;143736;671;46020;-85
2021/05/07 08:53:29;;;;;;;4.50;1.70;;;;;;;;;;143734;580;46013;-84
2021/05/07 08:55:56;;;;;;;5.75;1.80;;;;;;;;;;143733;564;46020;-84
2021/05/07 08:58:24;;;;;;;8.75;1.83;;;;;;;;;;143733;614;46010;-84
2021/05/07 09:00:52;;;;;;;6.47;1.85;;;;;;;;;;143734;597;46021;-83
2021/05/07 09:03:19;;;;;;;4.82;2.03;;;;;;;;;;143735;581;46010;-83
2021/05/07 09:05:46;;;;;;;8.45;1.65;;;;;;;;;;143731;649;47022;-82
2021/05/07 09:08:13;;;;;;;4.50;1.52;;;;;;;;;;143734;623;46010;-83
2021/05/07 09:10:43;;;;;;;7.90;2.22;;;;;;;;;;143735;682;46012;-84
2021/05/07 09:13:11;;;;;;;4.12;1.95;;;;;;;;;;143735;579;46018;-85
2021/05/07 09:15:48;;;;;;;11.10;2.35;;;;;;;;;;143731;564;46023;-84
2021/05/07 09:18:16;;;;;;;8.45;2.00;;;;;;;;;;143730;592;46914;-84
2021/05/07 09:20:47;;;;;;;5.28;1.92;;;;;;;;;;143733;625;46020;-84
2021/05/07 09:23:14;;;;;;;6.40;1.55;;;;;;;;;;143735;579;46010;-85
2021/05/07 09:25:48;;;;;;;4.72;2.00;;;;;;;;;;143734;609;46022;-83
2021/05/07 09:28:17;;;;;;;5.25;1.62;;;;;;;;;;143734;581;46010;-83
2021/05/07 09:30:48;;;;;;;8.13;2.45;;;;;;;;;;143734;564;46021;-84
2021/05/07 09:33:16;;;;;;;6.60;2.50;;;;;;;;;;143735;646;46020;-82
2021/05/07 09:35:44;;;;;;;4.68;1.98;;;;;;;;;;143732;605;47022;-84
2021/05/07 09:38:17;;;;;;;7.90;2.05;;;;;;;;;;143732;591;47020;-84
2021/05/07 09:40:44;;;;;;;11.90;2.72;;;;;;;;;;143735;584;46020;-83
2021/05/07 09:43:23;;;;;;;7.93;1.83;;;;;;;;;;143734;597;46010;-82
2021/05/07 09:45:53;;;;;;;8.20;2.75;;;;;;;;;;143731;569;47023;-83
2021/05/07 09:48:22;;;;;;;7.70;2.10;;;;;;;;;;143732;597;46010;-84
2021/05/07 09:50:55;;;;;;;6.35;1.95;;;;;;;;;;143734;577;46020;-83
2021/05/07 09:53:33;;;;;;;;;;;;;;;;;;;;;
2021/05/07 09:56:13;;;;;;;7.25;1.60;;;;;;;;;;143735;594;46020;-83
2021/05/07 09:58:40;;;;;;;4.72;1.90;;;;;;;;;;143731;564;46010;-83
2021/05/07 10:01:08;;;;;;;14.87;1.92;;;;;;;;;;143734;598;46021;-83
2021/05/07 10:03:34;;;;;;;8.45;1.87;;;;;;;;;;143735;641;46020;-82
2021/05/07 10:06:05;;;;;;;10.20;1.73;;;;;;;;;;143733;607;46022;-84
2021/05/07 10:08:42;;;;;;;12.37;2.58;;;;;;;;;;143729;584;46013;-82
2021/05/07 10:11:10;;;;;;;10.05;2.12;;;;;;;;;;143737;601;46012;-83
2021/05/07 10:13:38;;;;;;;12.48;2.95;;;;;;;;;;143734;569;46020;-83
2021/05/07 10:16:09;;;;;;;5.93;1.65;;;;;;;;;;143733;570;46036;-84
2021/05/07 10:18:38;;;;;;;8.07;2.20;;;;;;;;;;143733;566;46020;-84
2021/05/07 10:21:10;;;;;;;8.23;2.12;;;;;;;;;;143734;583;47020;-85
2021/05/07 10:23:51;;;;;;;5.95;2.45;;;;;;;;;;143735;570;46010;-84
2021/05/07 10:26:18;;;;;;;9.57;2.78;;;;;;;;;;143731;569;47022;-83
2021/05/07 10:28:55;;;;;;;7.55;2.45;;;;;;;;;;143731;587;46011;-83
2021/05/07 10:31:25;;;;;;;8.90;2.17;;;;;;;;;;143735;631;46021;-84
2021/05/07 10:34:03;;;;;;;13.20;2.80;;;;;;;;;;143735;564;46020;-83
2021/05/07 10:37:08;;;;;;;20.08;2.00;;;;;;;;;;143734;564;46022;-84
2021/05/07 10:40:00;;;;;;;5.72;1.50;;;;;;;;;;143732;569;46010;-84
2021/05/07 10:42:27;;;;;;;5.87;1.70;;;;;;;;;;143733;570;46020;-84
2021/05/07 10:44:54;;;;;;;10.63;1.87;;;;;;;;;;143733;577;46013;-83
2021/05/07 10:47:32;;;;;;;12.40;2.10;;;;;;;;;;143732;564;46037;-85
2021/05/07 10:49:59;;;;;;;8.05;2.15;;;;;;;;;;143734;661;46010;-84
2021/05/07 10:52:38;;;;;;;6.55;1.60;;;;;;;;;;143736;572;46021;-84
2021/05/07 10:55:35;;;;;;;3.67;1.80;;;;;;;;;;143742;573;45020;-90
2021/05/07 10:58:10;;;;;;;4.35;1.50;;;;;;;;;;143737;612;45022;-84
2021/05/07 11:00:39;;;;;;;4.05;1.85;;;;;;;;;;143736;569;45021;-85
2021/05/07 11:03:17;;;;;;;7.55;1.62;;;;;;;;;;143732;687;46020;-84
2021/05/07 11:05:49;;;;;;;11.50;1.60;;;;;;;;;;143735;574;46010;-84
2021/05/07 11:08:16;;;;;;;4.50;1.70;;;;;;;;;;143731;579;47023;-84
2021/05/07 11:10:43;;;;;;;9.40;2.03;;;;;;;;;;143732;587;46010;-84
2021/05/07 11:13:11;;;;;;;5.95;1.98;;;;;;;;;;143734;563;46020;-84
2021/05/07 11:15:38;;;;;;;4.68;1.48;;;;;;;;;;143735;648;46010;-85
2021/05/07 11:18:10;;;;;;;4.32;1.70;;;;;;;;;;143732;625;46022;-84
2021/05/07 11:20:38;;;;;;;6.78;1.35;;;;;;;;;;143733;657;46010;-84
2021/05/07 11:23:10;;;;;;;6.10;1.70;;;;;;;;;;143734;573;46018;-84
2021/05/07 11:25:38;;;;;;;5.20;1.30;;;;;;;;;;143735;642;47018;-83
2021/05/07 11:28:14;;;;;;;5.72;1.37;;;;;;;;;;143731;578;47021;-82
2021/05/07 11:30:55;;;;;;;5.55;1.40;;;;;;;;;;143732;651;46010;-84
2021/05/07 11:33:25;;;;;;;6.28;1.60;;;;;;;;;;143734;591;46020;-85
2021/05/07 11:36:12;;;;;;;4.93;1.27;;;;;;;;;;143736;602;46011;-84
2021/05/07 11:38:39;;;;;;;8.55;1.50;;;;;;;;;;143730;639;47023;-84
2021/05/07 11:41:26;;;;;;;4.40;1.48;;;;;;;;;;143733;576;46010;-85
2021/05/07 11:43:54;;;;;;;12.75;1.48;;;;;;;;;;143733;605;46021;-84
2021/05/07 11:46:21;;;;;;;6.00;2.17;;;;;;;;;;143735;582;46010;-82
2021/05/07 11:48:50;;;;;;;8.68;1.60;;;;;;;;;;143733;586;46052;-85
2021/05/07 11:51:16;;;;;;;10.00;1.95;;;;;;;;;;143731;593;46012;-85
2021/05/07 11:53:43;;;;;;;9.88;1.48;;;;;;;;;;143734;601;46020;-84
2021/05/07 11:56:25;;;;;;;3.05;1.15;;;;;;;;;;143734;600;46010;-85
2021/05/07 11:58:54;;;;;;;6.30;1.50;;;;;;;;;;143734;637;46021;-86
2021/05/07 12:01:25;;;;;;;3.17;1.05;;;;;;;;;;143730;683;47010;-85
2021/05/07 12:03:54;;;;;;;2.42;0.95;;;;;;;;;;143734;583;46020;-85
2021/05/07 12:06:23;;;;;;;4.43;1.42;;;;;;;;;;143735;619;46010;-86
2021/05/07 12:08:52;;;;;;;7.43;2.08;;;;;;;;;;143732;575;46023;-85
2021/05/07 12:11:19;;;;;;;3.78;1.62;;;;;;;;;;143732;571;46010;-85
2021/05/07 12:13:47;;;;;;;7.68;2.08;;;;;;;;;;143732;589;47020;-84
2021/05/07 12:16:14;;;;;;;6.32;1.77;;;;;;;;;;143733;577;46012;-85
2021/05/07 12:18:52;;;;;;;4.03;1.50;;;;;;;;;;143731;595;47022;-85
2021/05/07 12:21:19;;;;;;;5.82;1.20;;;;;;;;;;143731;631;46914;-85
2021/05/07 12:23:48;;;;;;;3.45;1.65;;;;;;;;;;143735;635;46021;-85
2021/05/07 12:26:15;;;;;;;4.53;1.40;;;;;;;;;;143738;566;45029;-85
2021/05/07 12:28:56;;;;;;;9.70;1.77;;;;;;;;;;143732;592;46033;-86
2021/05/07 12:31:32;;;;;;;1.90;0.93;;;;;;;;;;143735;565;47020;-83
2021/05/07 12:33:59;;;;;;;11.38;2.28;;;;;;;;;;143733;589;46020;-85
2021/05/07 12:36:26;;;;;;;4.40;1.65;;;;;;;;;;143735;623;46011;-85
2021/05/07 12:38:57;;;;;;;9.82;2.30;;;;;;;;;;143731;587;47020;-84
2021/05/07 12:41:27;;;;;;;11.23;2.05;;;;;;;;;;143732;626;46010;-85
2021/05/07 12:43:56;;;;;;;5.35;1.90;;;;;;;;;;143733;583;47020;-84
2021/05/07 12:46:23;;;;;;;5.35;1.45;;;;;;;;;;143735;587;46010;-85
2021/05/07 12:48:54;;;;;;;11.52;2.10;;;;;;;;;;143731;612;47022;-85
2021/05/07 12:51:21;;;;;;;11.80;1.80;;;;;;;;;;143733;619;46021;-85
2021/05/07 12:53:49;;;;;;;12.82;2.33;;;;;;;;;;143733;582;47020;-85
2021/05/07 12:56:16;;;;;;;2.58;1.30;;;;;;;;;;143734;580;46010;-84
2021/05/07 12:58:43;;;;;;;7.00;1.50;;;;;;;;;;143731;593;47021;-85
2021/05/07 13:01:11;;;;;;;9.82;1.80;;;;;;;;;;143733;636;46010;-85
2021/05/07 13:03:41;;;;;;;5.32;1.80;;;;;;;;;;143734;564;46020;-83
2021/05/07 13:06:08;;;;;;;9.43;2.15;;;;;;;;;;143734;610;46018;-85
2021/05/07 13:08:35;;;;;;;4.85;1.60;;;;;;;;;;143732;647;46023;-84
2021/05/07 13:11:03;;;;;;;7.68;1.98;;;;;;;;;;143732;642;45914;-85
2021/05/07 13:13:29;;;;;;;6.70;2.10;;;;;;;;;;143732;572;47021;-84
2021/05/07 13:15:56;;;;;;;8.05;2.33;;;;;;;;;;143732;594;46012;-85
2021/05/07 13:18:24;;;;;;;5.18;1.83;;;;;;;;;;143732;583;46022;-84
2021/05/07 13:20:50;;;;;;;7.25;2.05;;;;;;;;;;143732;582;46010;-84
2021/05/07 13:23:17;;;;;;;12.00;2.25;;;;;;;;;;143734;577;46021;-84
2021/05/07 13:25:44;;;;;;;7.93;2.25;;;;;;;;;;143735;581;46010;-85
2021/05/07 13:28:11;;;;;;;5.28;2.28;;;;;;;;;;143732;678;47022;-84
2021/05/07 13:30:43;;;;;;;12.63;2.58;;;;;;;;;;143729;587;46012;-83
2021/05/07 13:33:10;;;;;;;11.65;2.70;;;;;;;;;;143735;628;46020;-84
2021/05/07 13:35:43;;;;;;;9.45;1.87;;;;;;;;;;143733;635;46013;-84
2021/05/07 13:38:09;;;;;;;;;;;;;;;;;;143736;980;47023;-83
2021/05/07 13:40:38;;;;;;;6.18;2.12;;;;;;;;;;143744;585;46012;-86
2021/05/07 13:43:06;;;;;;;10.50;2.65;;;;;;;;;;143734;597;46021;-84
2021/05/07 13:45:33;;;;;;;10.60;2.55;;;;;;;;;;143734;614;46020;-85
2021/05/07 13:48:00;;;;;;;5.57;2.05;;;;;;;;;;143732;611;47022;-84
2021/05/07 13:50:26;;;;;;;6.10;2.12;;;;;;;;;;143732;584;47013;-84
2021/05/07 13:52:53;;;;;;;8.77;2.20;;;;;;;;;;143735;564;46020;-85
2021/05/07 13:55:22;;;;;;;9.80;2.28;;;;;;;;;;143732;591;46012;-84
2021/05/07 13:57:48;;;;;;;6.12;2.20;;;;;;;;;;143731;582;47022;-84
2021/05/07 14:00:16;;;;;;;5.25;2.47;;;;;;;;;;143730;571;46012;-82
2021/05/07 14:02:42;;;;;;;8.23;2.35;;;;;;;;;;143735;635;46020;-84
2021/05/07 14:05:11;;;;;;;4.90;1.98;;;;;;;;;;143737;618;46013;-85
2021/05/07 14:07:37;;;;;;;6.22;1.80;;;;;;;;;;143731;582;47023;-83
2021/05/07 14:10:05;;;;;;;8.05;1.70;;;;;;;;;;143732;626;46012;-84
2021/05/07 14:12:32;;;;;;;4.68;2.22;;;;;;;;;;143735;590;46021;-85
2021/05/07 14:14:59;;;;;;;8.82;1.80;;;;;;;;;;143738;581;46012;-84
2021/05/07 14:17:26;;;;;;;6.18;2.35;;;;;;;;;;143732;572;47022;-83
2021/05/07 14:19:53;;;;;;;7.43;2.17;;;;;;;;;;143730;619;46013;-84
2021/05/07 14:22:20;;;;;;;7.50;1.85;;;;;;;;;;143736;593;46029;-84
2021/05/07 14:24:47;;;;;;;8.10;2.80;;;;;;;;;;143735;576;46012;-82
2021/05/07 14:27:16;;;;;;;11.35;2.42;;;;;;;;;;143734;625;46048;-84
2021/05/07 14:29:43;;;;;;;6.90;2.47;;;;;;;;;;143732;564;46012;-84
2021/05/07 14:32:09;;;;;;;7.03;2.10;;;;;;;;;;143736;600;46014;-84
2021/05/07 14:34:36;;;;;;;10.70;2.70;;;;;;;;;;143735;632;46013;-83
2021/05/07 14:37:02;;;;;;;5.70;2.08;;;;;;;;;;143732;564;47023;-84
2021/05/07 14:39:32;;;;;;;5.75;1.90;;;;;;;;;;143734;569;46012;-83
2021/05/07 14:41:59;;;;;;;11.10;2.22;;;;;;;;;;143735;610;46020;-84
2021/05/07 14:44:25;;;;;;;6.47;1.90;;;;;;;;;;143733;582;46012;-84
2021/05/07 14:46:54;;;;;;;7.47;2.70;;;;;;;;;;143733;601;46022;-84
2021/05/07 14:49:24;;;;;;;6.22;2.20;;;;;;;;;;143731;577;46012;-84
2021/05/07 14:51:51;;;;;;;10.20;2.70;;;;;;;;;;143732;586;47021;-84